Airfield :
LOGIN :

Register | Disclaimer

   EN    FR    IT 

 










Legend :    VFR   Marginal VFR   IFR   Intensive IFR   Very Intensive IFR
Visi :
Ceiling :
>= 8 km
>= 3000ft
5 to 8 km
1000 to 3000 ft
1500m to 5 km
500 to 1000 ft
800 to 1500m
200 to 500 ft
< 800m
< 200 ft
Symbols :   Thunderstorms  Fog  Heavy snow  Heavy precipitations  Wind > 20 kt
SIGMETs :     Misc.  Thunderstorms  Icing  Turbulence  Mountain Waves  Volcanic Ashes







- Airport Elevation : 436 ft
- IATA code : ANG
- Download approach charts


LFBU - Angoulême Brie Champniers

CURRENT METAR :
  • 300100Z AUTO 30004KT 9999 SCT010 SCT038 OVC150 16/14 Q1016

EXPIRED METARs :
  • 300030Z AUTO 30003KT 9999 FEW039/// BKN088/// OVC140/// ///TCU 16/15 Q1017
  • 300000Z AUTO 00000KT 9999 SCT039/// BKN120/// OVC140/// ///CB 16/14 Q1017
  • 292330Z AUTO 00000KT 9999 SCT040 BKN074 16/14 Q1017
  • 292300Z AUTO 30003KT CAVOK 16/14 Q1017
  • 292230Z AUTO 29005KT CAVOK 17/14 Q1017

TAF TAF LFBU
Valid from the 29 at 18:00 until the 30 at 18:00 UTC


291700Z 2918/3018 30008KT CAVOK
TEMPO 2918/2921 -SHRA BKN030TCU
PROB30
TEMPO 2918/2921 4000 TSRA BKN012 BKN030CB
TEMPO 2921/2924 SHRA BKN008 BKN030TCU
PROB40 3000/3008 -RA BKN005
TEMPO 3010/3018 BKN025TCU
No reported NOTAMs for that airfield.
2 SIGMETs reported for the Bordeaux FIR (LFBB) :
 
Embedded thunderstorms
LFBB SIGMET 2 VALID 300030/300200 LFPW
LFBB BORDEAUX FIR/UIR EMBD TS OBS AT 0020Z WI N4330 W00115 - N4400 W00145 - N4445 W00100 - N4415 W00030 TOP FL390 MOV NE 20KT NC=
Embedded thunderstorms
LFBB SIGMET 1 VALID 300000/300200 LFPW
LFBB BORDEAUX FIR/UIR EMBD TS OBS AT 2350Z WI N4715 E00145 - N4715 E00200 - N4645 E00245 - N4330 E00230 - N4445 E00100 TOP FL390 MOV NE 25KT NC=



MET'MAP, your aeronautical weather chart ! - Copyright ORBIFLY December 2007 - Disclaimer

ORBIFLY MET'MAP TEAM :

Programming & Development : Alexandra Zaïnal
Concept & Development : Baudouin d'Aumeries
Co-Development & Prog : Marc-Olivier Méhu
Technical & hardware support : Manuel Goepfert

Contact : metmap@orbifly.com




SOURCES & CREDITS :

   NOAA